Aviation Digital Data Service (ADDS)

Output produced by METARs form (0535 UTC 21 January 2019)
found at http://www.aviationweather.gov/metar/data/
 
Forecast for: FGBT (BATA (RIO MUNI) , GQ)
Text: TAF FGBT 202300Z 2100/2124 22005KT 9999 SCT010
Forecast period: 0000 UTC 21 January 2019 to 0000 UTC 22 January 2019
Forecast type: FROM: standard forecast or significant change
Winds: from the SW (220 degrees) at 6 MPH (5 knots; 2.6 m/s)
Visibility: 6 or more miles 10+ km)
Ceiling: at least 12,000 feet AGL
Clouds: scattered clouds at 1000 feet AGL
Weather: no significant weather forecast for this period
Text: TEMPO 2104/2108 BKN008 FEW018CB
Forecast period: 0400 to 0800 UTC 21 January 2019
Forecast type: TEMPORARY: The following changes expected for less than half the time period
Visibility: missing
Ceiling: 800 feet AGL
Clouds: broken clouds at 800 feet AGL
few clouds at 1800 feet AGL
Weather: no significant weather forecast for this period
Text: TEMPO 2112/2118 BKN012 FEW020CB
Forecast period: 1200 to 1800 UTC 21 January 2019
Forecast type: TEMPORARY: The following changes expected for less than half the time period
Visibility: missing
Ceiling: 1200 feet AGL
Clouds: broken clouds at 1200 feet AGL
few clouds at 2000 feet AGL
Weather: no significant weather forecast for this period